Time,TemperatureF,DewpointF,PressureIn,WindDirection,WindDirectionDegrees,WindSpeedMPH,WindSpeedGustMPH,Humidity,HourlyPrecipIn,Conditions,Clouds,dailyrainin,SoftwareType,DateUTC
2013-02-09 00:00:00,71.8,63.8,29.67,West,270,0.0,29.3,76,0.00,,---,0.00,VWS V13.01,2013-02-09 05:00:00,
2013-02-09 00:05:00,71.8,64.2,29.68,West,270,0.0,0.0,77,0.00,,---,0.00,VWS V13.01,2013-02-09 05:05:00,
2013-02-09 00:15:00,71.6,63.6,29.67,West,270,0.0,0.0,76,0.00,,---,0.00,VWS V13.01,2013-02-09 05:15:00,
2013-02-09 00:25:00,71.4,63.5,29.67,West,270,8.7,30.7,76,0.00,,---,0.00,VWS V13.01,2013-02-09 05:25:00,
2013-02-09 00:35:00,71.2,63.3,29.67,West,270,22.2,22.2,76,0.00,,---,0.00,VWS V13.01,2013-02-09 05:35:00,
2013-02-09 00:40:00,71.2,62.9,29.67,WNW,292,15.9,22.2,75,0.00,,---,0.00,VWS V13.01,2013-02-09 05:40:00,
2013-02-09 00:50:00,70.7,62.8,29.67,North,0,19.9,19.9,76,0.00,,---,0.00,VWS V13.01,2013-02-09 05:50:00,
2013-02-09 00:55:00,70.5,62.6,29.67,NNW,338,2.5,19.9,76,0.00,,---,0.00,VWS V13.01,2013-02-09 05:55:00,
2013-02-09 01:00:00,70.5,62.6,29.67,North,0,0.0,2.5,76,0.00,,---,0.00,VWS V13.01,2013-02-09 06:00:00,
2013-02-09 01:10:00,70.2,61.9,29.67,NNW,338,15.7,15.7,75,0.00,,---,0.00,VWS V13.01,2013-02-09 06:10:00,
2013-02-09 01:20:00,70.0,61.7,29.67,NNW,338,0.0,21.9,75,0.00,,---,0.00,VWS V13.01,2013-02-09 06:20:00,
2013-02-09 01:30:00,69.8,61.5,29.67,NNW,338,15.2,19.7,75,0.00,,---,0.00,VWS V13.01,2013-02-09 06:30:00,
2013-02-09 01:40:00,69.4,60.8,29.67,NNW,338,22.4,22.4,74,0.00,,---,0.00,VWS V13.01,2013-02-09 06:40:00,
2013-02-09 01:50:00,69.1,60.5,29.67,NNW,338,19.9,19.9,74,0.00,,---,0.00,VWS V13.01,2013-02-09 06:50:00,
2013-02-09 01:55:00,69.1,60.5,29.67,NNW,338,15.2,19.9,74,0.00,,---,0.00,VWS V13.01,2013-02-09 06:55:00,
2013-02-09 02:00:00,68.9,60.3,29.67,NNW,338,21.5,21.5,74,0.00,,---,0.00,VWS V13.01,2013-02-09 07:00:00,
2013-02-09 02:10:00,68.7,60.1,29.66,NNW,338,12.8,21.5,74,0.00,,---,0.00,VWS V13.01,2013-02-09 07:10:00,
2013-02-09 02:15:00,68.5,59.9,29.66,NNW,338,11.4,13.2,74,0.00,,---,0.00,VWS V13.01,2013-02-09 07:15:00,
2013-02-09 02:25:00,68.4,60.1,29.66,NNW,338,14.8,18.8,75,0.00,,---,0.00,VWS V13.01,2013-02-09 07:25:00,
2013-02-09 02:35:00,68.2,60.0,29.66,NNW,338,16.8,16.8,75,0.00,,---,0.00,VWS V13.01,2013-02-09 07:35:00,
2013-02-09 02:40:00,68.2,60.0,29.66,NNW,338,12.5,16.8,75,0.00,,---,0.00,VWS V13.01,2013-02-09 07:40:00,
2013-02-09 02:45:00,68.2,60.0,29.66,NNW,338,12.5,12.5,75,0.00,,---,0.00,VWS V13.01,2013-02-09 07:45:00,
2013-02-09 02:55:00,67.8,59.6,29.67,NNW,338,16.3,16.3,75,0.00,,---,0.00,VWS V13.01,2013-02-09 07:55:00,
2013-02-09 03:05:00,67.6,59.8,29.66,NNW,338,16.1,19.9,76,0.00,,---,0.00,VWS V13.01,2013-02-09 08:05:00,
2013-02-09 03:10:00,67.6,59.8,29.67,NNW,338,0.0,16.1,76,0.00,,---,0.00,VWS V13.01,2013-02-09 08:10:00,
2013-02-09 03:20:00,67.6,59.8,29.67,NNW,338,9.4,15.2,76,0.00,,---,0.00,VWS V13.01,2013-02-09 08:20:00,
2013-02-09 03:30:00,67.6,59.8,29.67,NNW,338,0.0,21.5,76,0.00,,---,0.00,VWS V13.01,2013-02-09 08:30:00,
2013-02-09 03:40:00,67.6,60.2,29.67,NW,315,17.5,19.5,77,0.00,,---,0.00,VWS V13.01,2013-02-09 08:40:00,
2013-02-09 03:50:00,67.6,60.2,29.67,NW,315,0.7,17.5,77,0.00,,---,0.00,VWS V13.01,2013-02-09 08:50:00,
2013-02-09 04:00:00,67.8,60.3,29.67,NW,315,11.6,21.3,77,0.00,,---,0.00,VWS V13.01,2013-02-09 09:00:00,
2013-02-09 04:05:00,67.8,60.3,29.67,NW,315,14.1,14.1,77,0.00,,---,0.00,VWS V13.01,2013-02-09 09:05:00,
2013-02-09 04:10:00,67.8,60.3,29.67,NW,315,15.7,19.0,77,0.00,,---,0.00,VWS V13.01,2013-02-09 09:10:00,
2013-02-09 04:20:00,67.6,60.2,29.67,NW,315,10.5,24.2,77,0.00,,---,0.00,VWS V13.01,2013-02-09 09:20:00,
2013-02-09 04:25:00,67.6,60.2,29.67,NW,315,17.0,17.0,77,0.00,,---,0.00,VWS V13.01,2013-02-09 09:25:00,
2013-02-09 04:35:00,67.3,59.8,29.67,NW,315,0.0,16.6,77,0.00,,---,0.00,VWS V13.01,2013-02-09 09:35:00,
2013-02-09 04:45:00,67.3,59.8,29.67,NW,315,0.7,16.8,77,0.00,,---,0.00,VWS V13.01,2013-02-09 09:45:00,
2013-02-09 04:55:00,67.3,60.2,29.68,WNW,292,21.0,26.2,78,0.00,,---,0.00,VWS V13.01,2013-02-09 09:55:00,
2013-02-09 05:05:00,67.3,60.2,29.68,WNW,292,19.2,19.2,78,0.00,,---,0.00,VWS V13.01,2013-02-09 10:05:00,
2013-02-09 05:10:00,67.3,60.2,29.68,WNW,292,17.2,19.7,78,0.00,,---,0.00,VWS V13.01,2013-02-09 10:10:00,
2013-02-09 05:20:00,67.3,60.2,29.69,NW,315,18.1,21.0,78,0.00,,---,0.00,VWS V13.01,2013-02-09 10:20:00,
2013-02-09 05:25:00,67.3,60.2,29.69,NW,315,18.1,18.1,78,0.00,,---,0.00,VWS V13.01,2013-02-09 10:25:00,
2013-02-09 05:35:00,67.3,60.2,29.69,WNW,292,14.8,14.8,78,0.00,,---,0.00,VWS V13.01,2013-02-09 10:35:00,
2013-02-09 05:45:00,67.6,60.9,29.70,North,0,14.1,25.5,79,0.00,,---,0.00,VWS V13.01,2013-02-09 10:45:00,
2013-02-09 05:50:00,67.6,60.9,29.70,NNW,338,21.5,21.5,79,0.00,,---,0.00,VWS V13.01,2013-02-09 10:50:00,
2013-02-09 06:00:00,67.8,61.1,29.70,NNW,338,0.0,19.0,79,0.00,,---,0.00,VWS V13.01,2013-02-09 11:00:00,
2013-02-09 06:10:00,67.8,61.1,29.71,NNW,338,1.1,1.1,79,0.00,,---,0.00,VWS V13.01,2013-02-09 11:10:00,
2013-02-09 06:20:00,67.8,61.1,29.71,NNW,338,17.0,19.2,79,0.00,,---,0.00,VWS V13.01,2013-02-09 11:20:00,
2013-02-09 06:30:00,67.8,61.1,29.71,NNW,338,17.9,17.9,79,0.00,,---,0.00,VWS V13.01,2013-02-09 11:30:00,
2013-02-09 06:35:00,67.8,61.1,29.71,NNW,338,0.0,17.9,79,0.00,,---,0.00,VWS V13.01,2013-02-09 11:35:00,
2013-02-09 06:45:00,68.2,61.4,29.72,NNW,338,17.0,22.6,79,0.00,,---,0.00,VWS V13.01,2013-02-09 11:45:00,
2013-02-09 06:50:00,68.2,61.4,29.72,NNW,338,19.0,19.0,79,0.00,,---,0.00,VWS V13.01,2013-02-09 11:50:00,
2013-02-09 07:00:00,68.5,61.8,29.72,NNW,338,17.9,21.3,79,0.00,,---,0.00,VWS V13.01,2013-02-09 12:00:00,
2013-02-09 07:10:00,68.7,62.0,29.73,NNW,338,18.1,18.8,79,0.00,,---,0.00,VWS V13.01,2013-02-09 12:10:00,
2013-02-09 07:20:00,68.9,62.1,29.73,NNW,338,17.9,17.9,79,0.00,,---,0.00,VWS V13.01,2013-02-09 12:20:00,
2013-02-09 07:30:00,68.9,61.8,29.73,North,0,0.4,1.6,78,0.00,,---,0.00,VWS V13.01,2013-02-09 12:30:00,
2013-02-09 07:35:00,68.7,61.6,29.73,North,0,0.9,18.3,78,0.00,,---,0.00,VWS V13.01,2013-02-09 12:35:00,
2013-02-09 07:45:00,68.9,61.8,29.73,North,0,0.7,13.2,78,0.00,,---,0.00,VWS V13.01,2013-02-09 12:45:00,
2013-02-09 07:55:00,69.3,62.1,29.74,North,0,1.1,16.3,78,0.00,,---,0.00,VWS V13.01,2013-02-09 12:55:00,
2013-02-09 08:00:00,69.3,62.1,29.74,North,0,1.1,1.1,78,0.00,,---,0.00,VWS V13.01,2013-02-09 13:00:00,
2013-02-09 08:10:00,70.2,62.2,29.74,North,0,0.0,3.4,76,0.00,,---,0.00,VWS V13.01,2013-02-09 13:10:00,
2013-02-09 08:20:00,70.2,62.2,29.75,NNE,22,4.0,4.0,76,0.00,,---,0.00,VWS V13.01,2013-02-09 13:20:00,
2013-02-09 08:30:00,70.5,62.2,29.75,NNW,338,0.2,2.2,75,0.00,,---,0.00,VWS V13.01,2013-02-09 13:30:00,
2013-02-09 08:35:00,70.7,62.4,29.75,NW,315,0.0,4.3,75,0.00,,---,0.00,VWS V13.01,2013-02-09 13:35:00,
2013-02-09 08:45:00,71.2,62.9,29.75,NNW,338,2.9,2.9,75,0.00,,---,0.00,VWS V13.01,2013-02-09 13:45:00,
2013-02-09 08:50:00,71.4,62.7,29.76,North,0,2.0,5.4,74,0.00,,---,0.00,VWS V13.01,2013-02-09 13:50:00,
2013-02-09 09:00:00,72.0,63.2,29.76,NE,45,0.0,0.0,74,0.00,,---,0.00,VWS V13.01,2013-02-09 14:00:00,
2013-02-09 09:05:00,73.0,63.9,29.76,North,0,0.0,0.0,73,0.00,,---,0.00,VWS V13.01,2013-02-09 14:05:00,
2013-02-09 09:10:00,73.6,64.0,29.76,NNW,338,6.3,6.3,72,0.00,,---,0.00,VWS V13.01,2013-02-09 14:10:00,
2013-02-09 09:20:00,74.3,64.3,29.76,North,0,1.3,4.9,71,0.00,,---,0.00,VWS V13.01,2013-02-09 14:20:00,
2013-02-09 09:25:00,75.0,65.0,29.76,NNE,22,0.0,3.4,71,0.00,,---,0.00,VWS V13.01,2013-02-09 14:25:00,
2013-02-09 09:35:00,75.7,64.9,29.76,NNE,22,4.9,4.9,69,0.00,,---,0.00,VWS V13.01,2013-02-09 14:35:00,
2013-02-09 09:45:00,76.1,64.8,29.77,NE,45,1.8,1.8,68,0.00,,---,0.00,VWS V13.01,2013-02-09 14:45:00,
2013-02-09 09:55:00,76.3,65.4,29.77,NE,45,7.4,7.4,69,0.00,,---,0.00,VWS V13.01,2013-02-09 14:55:00,
2013-02-09 10:05:00,76.6,65.3,29.77,NE,45,3.1,3.1,68,0.00,,---,0.00,VWS V13.01,2013-02-09 15:05:00,
2013-02-09 10:15:00,77.5,65.7,29.78,ENE,68,8.3,8.3,67,0.00,,---,0.00,VWS V13.01,2013-02-09 15:15:00,
2013-02-09 10:25:00,78.6,65.4,29.78,ESE,112,8.1,8.3,64,0.00,,---,0.00,VWS V13.01,2013-02-09 15:25:00,
2013-02-09 10:35:00,78.6,65.0,29.78,ENE,68,6.3,6.5,63,0.00,,---,0.00,VWS V13.01,2013-02-09 15:35:00,
2013-02-09 10:45:00,79.0,64.9,29.78,East,90,5.8,7.8,62,0.00,,---,0.00,VWS V13.01,2013-02-09 15:45:00,
2013-02-09 10:55:00,79.2,65.5,29.77,ESE,112,4.5,4.5,63,0.00,,---,0.00,VWS V13.01,2013-02-09 15:55:00,
2013-02-09 11:05:00,79.0,65.3,29.77,NE,45,4.7,7.2,63,0.00,,---,0.00,VWS V13.01,2013-02-09 16:05:00,
2013-02-09 11:15:00,79.3,65.2,29.77,East,90,7.2,7.2,62,0.00,,---,0.00,VWS V13.01,2013-02-09 16:15:00,
2013-02-09 11:20:00,79.5,65.4,29.78,ENE,68,10.1,10.1,62,0.00,,---,0.00,VWS V13.01,2013-02-09 16:20:00,
2013-02-09 11:30:00,79.9,65.2,29.78,ESE,112,10.1,10.1,61,0.00,,---,0.00,VWS V13.01,2013-02-09 16:30:00,
2013-02-09 11:40:00,80.2,65.1,29.77,ESE,112,6.9,7.2,60,0.00,,---,0.00,VWS V13.01,2013-02-09 16:40:00,
2013-02-09 11:45:00,80.2,65.1,29.77,ESE,112,6.9,6.9,60,0.00,,---,0.00,VWS V13.01,2013-02-09 16:45:00,
2013-02-09 11:55:00,78.6,64.5,29.77,East,90,2.0,4.9,62,0.00,,---,0.00,VWS V13.01,2013-02-09 16:55:00,
2013-02-09 12:00:00,78.1,63.5,29.77,NE,45,3.4,4.9,61,0.00,,---,0.00,VWS V13.01,2013-02-09 17:00:00,
2013-02-09 12:10:00,76.8,62.4,29.77,ENE,68,7.2,7.6,61,0.00,,---,0.00,VWS V13.01,2013-02-09 17:10:00,
2013-02-09 12:20:00,76.3,62.3,29.77,NE,45,9.2,9.2,62,0.00,,---,0.00,VWS V13.01,2013-02-09 17:20:00,
2013-02-09 12:30:00,76.1,63.0,29.77,NNE,22,4.9,4.9,64,0.00,,---,0.00,VWS V13.01,2013-02-09 17:30:00,
2013-02-09 12:40:00,78.3,64.6,29.77,ESE,112,8.1,8.1,63,0.00,,---,0.00,VWS V13.01,2013-02-09 17:40:00,
2013-02-09 12:45:00,78.4,64.8,29.77,ENE,68,8.5,8.5,63,0.00,,---,0.00,VWS V13.01,2013-02-09 17:45:00,
2013-02-09 12:55:00,78.6,65.0,29.76,NE,45,2.9,7.4,63,0.00,,---,0.00,VWS V13.01,2013-02-09 17:55:00,
2013-02-09 13:00:00,78.6,65.0,29.77,NE,45,13.9,13.9,63,0.00,,---,0.00,VWS V13.01,2013-02-09 18:00:00,
2013-02-09 13:10:00,78.6,64.5,29.76,ENE,68,7.4,9.0,62,0.00,,---,0.00,VWS V13.01,2013-02-09 18:10:00,
2013-02-09 13:20:00,78.4,64.8,29.76,East,90,6.0,6.0,63,0.00,,---,0.00,VWS V13.01,2013-02-09 18:20:00,
2013-02-09 13:30:00,78.6,64.5,29.76,ENE,68,4.0,7.4,62,0.00,,---,0.00,VWS V13.01,2013-02-09 18:30:00,
2013-02-09 13:40:00,78.6,64.5,29.76,WSW,248,6.9,6.9,62,0.00,,---,0.00,VWS V13.01,2013-02-09 18:40:00,
2013-02-09 13:50:00,78.4,64.3,29.76,NE,45,4.0,4.0,62,0.00,,---,0.00,VWS V13.01,2013-02-09 18:50:00,
2013-02-09 14:00:00,78.6,64.5,29.76,ENE,68,7.4,12.5,62,0.00,,---,0.00,VWS V13.01,2013-02-09 19:00:00,
2013-02-09 14:10:00,78.6,64.1,29.76,WSW,248,4.7,12.5,61,0.00,,---,0.00,VWS V13.01,2013-02-09 19:10:00,
2013-02-09 14:20:00,79.0,64.4,29.76,NE,45,5.8,8.1,61,0.00,,---,0.00,VWS V13.01,2013-02-09 19:20:00,
2013-02-09 14:25:00,79.0,63.9,29.76,NE,45,11.0,11.0,60,0.00,,---,0.00,VWS V13.01,2013-02-09 19:25:00,
2013-02-09 14:30:00,77.2,62.2,29.76,NE,45,11.0,11.0,60,0.00,,---,0.00,VWS V13.01,2013-02-09 19:30:00,
2013-02-09 14:35:00,76.8,64.2,29.76,East,90,7.4,11.0,65,0.00,,---,0.00,VWS V13.01,2013-02-09 19:35:00,
2013-02-09 14:45:00,75.7,63.6,29.75,WSW,248,7.8,7.8,66,0.00,,---,0.00,VWS V13.01,2013-02-09 19:45:00,
2013-02-09 14:50:00,76.8,63.7,29.75,WSW,248,11.4,11.4,64,0.00,,---,0.00,VWS V13.01,2013-02-09 19:50:00,
2013-02-09 15:00:00,77.7,63.7,29.75,WSW,248,10.1,10.1,62,0.00,,---,0.00,VWS V13.01,2013-02-09 20:00:00,
2013-02-09 15:05:00,77.5,63.0,29.75,NE,45,12.3,12.3,61,0.00,,---,0.00,VWS V13.01,2013-02-09 20:05:00,
2013-02-09 15:15:00,77.0,63.0,29.75,WSW,248,4.3,6.9,62,0.00,,---,0.00,VWS V13.01,2013-02-09 20:15:00,
2013-02-09 15:25:00,76.3,62.3,29.75,ENE,68,6.3,7.8,62,0.00,,---,0.00,VWS V13.01,2013-02-09 20:25:00,
2013-02-09 15:35:00,76.1,62.2,29.75,NE,45,5.4,5.4,62,0.00,,---,0.00,VWS V13.01,2013-02-09 20:35:00,
2013-02-09 15:40:00,76.6,62.7,29.75,ENE,68,5.4,10.1,62,0.00,,---,0.00,VWS V13.01,2013-02-09 20:40:00,
2013-02-09 15:50:00,76.6,62.2,29.75,East,90,10.3,10.3,61,0.00,,---,0.00,VWS V13.01,2013-02-09 20:50:00,
2013-02-09 16:00:00,76.1,62.2,29.75,ENE,68,8.1,8.1,62,0.00,,---,0.00,VWS V13.01,2013-02-09 21:00:00,
2013-02-09 16:10:00,75.0,61.6,29.76,ENE,68,3.4,9.0,63,0.00,,---,0.00,VWS V13.01,2013-02-09 21:10:00,
2013-02-09 16:20:00,75.0,61.6,29.75,ESE,112,10.1,13.0,63,0.00,,---,0.00,VWS V13.01,2013-02-09 21:20:00,
2013-02-09 16:30:00,75.2,61.8,29.76,ESE,112,2.2,7.8,63,0.00,,---,0.00,VWS V13.01,2013-02-09 21:30:00,
2013-02-09 16:35:00,75.0,61.6,29.76,WSW,248,6.9,6.9,63,0.00,,---,0.00,VWS V13.01,2013-02-09 21:35:00,
2013-02-09 16:45:00,75.4,61.5,29.76,WSW,248,7.4,9.2,62,0.00,,---,0.00,VWS V13.01,2013-02-09 21:45:00,
2013-02-09 16:50:00,75.4,61.5,29.76,WSW,248,10.3,10.3,62,0.00,,---,0.00,VWS V13.01,2013-02-09 21:50:00,
2013-02-09 17:00:00,75.4,61.9,29.76,ENE,68,6.0,6.7,63,0.00,,---,0.00,VWS V13.01,2013-02-09 22:00:00,
2013-02-09 17:05:00,74.8,61.4,29.77,ENE,68,2.7,7.8,63,0.00,,---,0.00,VWS V13.01,2013-02-09 22:05:00,
2013-02-09 17:15:00,74.3,61.3,29.77,NE,45,7.8,9.4,64,0.00,,---,0.00,VWS V13.01,2013-02-09 22:15:00,
2013-02-09 17:20:00,74.3,61.3,29.76,NE,45,7.8,7.8,64,0.00,,---,0.00,VWS V13.01,2013-02-09 22:20:00,
2013-02-09 17:25:00,74.1,61.2,29.76,ENE,68,3.1,8.7,64,0.00,,---,0.00,VWS V13.01,2013-02-09 22:25:00,
2013-02-09 17:35:00,73.9,61.0,29.77,NNE,22,9.0,10.1,64,0.00,,---,0.00,VWS V13.01,2013-02-09 22:35:00,
2013-02-09 17:40:00,73.6,61.1,29.77,ENE,68,8.3,9.0,65,0.00,,---,0.00,VWS V13.01,2013-02-09 22:40:00,
2013-02-09 17:50:00,73.2,60.8,29.77,NNE,22,5.6,7.8,65,0.00,,---,0.00,VWS V13.01,2013-02-09 22:50:00,
2013-02-09 18:00:00,72.9,60.8,29.77,East,90,10.7,10.7,66,0.00,,---,0.00,VWS V13.01,2013-02-09 23:00:00,
2013-02-09 18:10:00,72.5,60.5,29.77,East,90,3.6,9.8,66,0.00,,---,0.00,VWS V13.01,2013-02-09 23:10:00,
2013-02-09 18:15:00,72.5,60.5,29.77,ENE,68,4.5,4.5,66,0.00,,---,0.00,VWS V13.01,2013-02-09 23:15:00,
2013-02-09 18:25:00,72.5,60.9,29.77,SE,135,4.9,5.8,67,0.00,,---,0.00,VWS V13.01,2013-02-09 23:25:00,
2013-02-09 18:35:00,72.3,60.3,29.78,East,90,8.3,11.2,66,0.00,,---,0.00,VWS V13.01,2013-02-09 23:35:00,
2013-02-09 18:45:00,72.3,60.3,29.78,ENE,68,6.3,8.1,66,0.00,,---,0.00,VWS V13.01,2013-02-09 23:45:00,
2013-02-09 18:55:00,72.1,59.7,29.78,East,90,11.6,11.6,65,0.00,,---,0.00,VWS V13.01,2013-02-09 23:55:00,
2013-02-09 19:00:00,72.1,59.7,29.78,East,90,11.6,11.6,65,0.00,,---,0.00,VWS V13.01,2013-02-10 00:00:00,
2013-02-09 19:10:00,72.1,60.2,29.78,East,90,10.3,10.3,66,0.00,,---,0.00,VWS V13.01,2013-02-10 00:10:00,
2013-02-09 19:20:00,72.1,60.2,29.79,NE,45,4.3,9.2,66,0.00,,---,0.00,VWS V13.01,2013-02-10 00:20:00,
2013-02-09 19:25:00,72.1,60.2,29.79,ENE,68,6.5,6.5,66,0.00,,---,0.00,VWS V13.01,2013-02-10 00:25:00,
2013-02-09 19:30:00,72.0,60.0,29.79,ENE,68,6.0,6.5,66,0.00,,---,0.00,VWS V13.01,2013-02-10 00:30:00,
2013-02-09 19:40:00,71.8,59.8,29.79,SE,135,8.3,8.3,66,0.00,,---,0.00,VWS V13.01,2013-02-10 00:40:00,
2013-02-09 19:50:00,71.8,59.8,29.79,ENE,68,17.7,17.7,66,0.00,,---,0.00,VWS V13.01,2013-02-10 00:50:00,
2013-02-09 20:00:00,71.8,59.8,29.79,ENE,68,3.1,9.8,66,0.00,,---,0.00,VWS V13.01,2013-02-10 01:00:00,
2013-02-09 20:10:00,71.8,59.8,29.80,ENE,68,7.4,8.7,66,0.00,,---,0.00,VWS V13.01,2013-02-10 01:10:00,
2013-02-09 20:20:00,71.8,59.8,29.80,East,90,5.8,6.9,66,0.00,,---,0.00,VWS V13.01,2013-02-10 01:20:00,
2013-02-09 20:30:00,71.8,59.4,29.80,ENE,68,2.0,8.5,65,0.00,,---,0.00,VWS V13.01,2013-02-10 01:30:00,
2013-02-09 20:35:00,71.8,59.4,29.81,ESE,112,4.0,11.0,65,0.00,,---,0.00,VWS V13.01,2013-02-10 01:35:00,
2013-02-09 20:45:00,71.8,59.4,29.80,SE,135,6.9,8.1,65,0.00,,---,0.00,VWS V13.01,2013-02-10 01:45:00,
2013-02-09 20:55:00,71.4,59.0,29.81,East,90,6.5,11.9,65,0.00,,---,0.00,VWS V13.01,2013-02-10 01:55:00,
2013-02-09 21:05:00,71.4,59.0,29.81,ESE,112,11.4,11.4,65,0.00,,---,0.00,VWS V13.01,2013-02-10 02:05:00,
2013-02-09 21:10:00,71.4,59.0,29.81,ENE,68,4.9,11.4,65,0.00,,---,0.00,VWS V13.01,2013-02-10 02:10:00,
2013-02-09 21:15:00,71.4,59.0,29.81,ENE,68,10.3,10.3,65,0.00,,---,0.00,VWS V13.01,2013-02-10 02:15:00,
2013-02-09 21:25:00,71.2,58.9,29.81,NE,45,6.9,9.6,65,0.00,,---,0.00,VWS V13.01,2013-02-10 02:25:00,
2013-02-09 21:35:00,71.2,58.5,29.81,NE,45,4.5,4.5,64,0.00,,---,0.00,VWS V13.01,2013-02-10 02:35:00,
2013-02-09 21:45:00,71.2,58.9,29.81,ENE,68,3.6,11.9,65,0.00,,---,0.00,VWS V13.01,2013-02-10 02:45:00,
2013-02-09 21:55:00,71.2,58.9,29.81,ENE,68,10.5,15.0,65,0.00,,---,0.00,VWS V13.01,2013-02-10 02:55:00,
2013-02-09 22:05:00,71.2,58.5,29.81,East,90,4.5,4.5,64,0.00,,---,0.00,VWS V13.01,2013-02-10 03:05:00,
2013-02-09 22:15:00,71.2,58.5,29.81,SE,135,10.5,10.5,64,0.00,,---,0.00,VWS V13.01,2013-02-10 03:15:00,
2013-02-09 22:25:00,71.1,58.3,29.81,ENE,68,11.9,11.9,64,0.00,,---,0.00,VWS V13.01,2013-02-10 03:25:00,
2013-02-09 22:35:00,71.1,58.7,29.81,ESE,112,6.0,6.0,65,0.00,,---,0.00,VWS V13.01,2013-02-10 03:35:00,
2013-02-09 22:45:00,70.9,58.1,29.81,ENE,68,7.6,7.8,64,0.00,,---,0.00,VWS V13.01,2013-02-10 03:45:00,
2013-02-09 22:55:00,70.9,58.1,29.82,NE,45,4.3,4.3,64,0.00,,---,0.00,VWS V13.01,2013-02-10 03:55:00,
2013-02-09 23:05:00,70.9,57.7,29.82,NE,45,10.1,12.1,63,0.00,,---,0.00,VWS V13.01,2013-02-10 04:05:00,
2013-02-09 23:10:00,70.9,57.7,29.82,ENE,68,6.7,10.1,63,0.00,,---,0.00,VWS V13.01,2013-02-10 04:10:00,
2013-02-09 23:20:00,70.9,58.1,29.82,ENE,68,8.7,8.7,64,0.00,,---,0.00,VWS V13.01,2013-02-10 04:20:00,
2013-02-09 23:31:00,70.9,58.1,29.82,ENE,68,5.4,9.4,64,0.00,,---,0.00,VWS V13.01,2013-02-10 04:31:00,
2013-02-09 23:40:00,70.9,58.1,29.82,ENE,68,6.7,6.7,64,0.00,,---,0.00,VWS V13.01,2013-02-10 04:40:00,
2013-02-09 23:45:00,70.9,57.7,29.82,ESE,112,4.7,6.7,63,0.00,,---,0.00,VWS V13.01,2013-02-10 04:45:00,
2013-02-09 23:55:00,70.9,57.7,29.82,ENE,68,5.8,5.8,63,0.00,,---,0.00,VWS V13.01,2013-02-10 04:55:00,